Time;durP1;ratioP1;P1;durP2;ratioP2;P2;SDS_P1;SDS_P2;PMS_P1;PMS_P2;Temp;Humidity;BMP_temperature;BMP_pressure;BME280_temperature;BME280_humidity;BME280_pressure;Samples;Min_cycle;Max_cycle;Signal;HPM_P1;HPM_P2
2022/11/13 00:00:33;;;;;;;16.13;10.27;;;;;;;6.89;87.37;94796.81;5083303;28;20520;-36
2022/11/13 00:02:58;;;;;;;17.67;11.32;;;;;;;6.83;86.70;94805.03;5081253;28;20021;-36
2022/11/13 00:05:24;;;;;;;18.98;10.95;;;;;;;6.75;86.62;94806.75;5075517;28;20036;-36
2022/11/13 00:07:49;;;;;;;17.42;11.05;;;;;;;6.73;86.90;94797.50;5085026;28;20024;-36
2022/11/13 00:10:15;;;;;;;19.48;10.85;;;;;;;6.74;87.02;94809.97;5086442;28;20384;-36
2022/11/13 00:12:40;;;;;;;17.42;10.23;;;;;;;6.80;86.85;94810.75;5079031;28;20055;-36
2022/11/13 00:15:06;;;;;;;12.18;10.15;;;;;;;6.79;86.59;94801.03;5085357;28;20070;-36
2022/11/13 00:17:32;;;;;;;13.07;9.52;;;;;;;6.91;86.11;94808.06;5087765;28;20012;-36
2022/11/13 00:19:57;;;;;;;17.35;10.70;;;;;;;6.89;85.93;94805.81;5078083;28;20031;-36
2022/11/13 00:22:23;;;;;;;14.30;9.80;;;;;;;6.94;86.17;94807.09;5076564;28;20021;-36
2022/11/13 00:24:48;;;;;;;19.77;12.25;;;;;;;6.90;86.10;94809.31;5085308;28;20024;-36
2022/11/13 00:27:13;;;;;;;16.65;11.57;;;;;;;6.84;86.51;94803.06;5088582;28;20017;-35
2022/11/13 00:29:39;;;;;;;15.35;11.35;;;;;;;6.74;87.20;94808.00;5083458;28;20031;-35
2022/11/13 00:32:05;;;;;;;16.98;10.18;;;;;;;6.73;87.88;94816.72;5080457;28;20026;-35
2022/11/13 00:34:30;;;;;;;14.48;10.18;;;;;;;6.71;87.63;94800.72;5081554;28;20052;-35
2022/11/13 00:36:56;;;;;;;19.83;12.10;;;;;;;6.65;88.21;94797.22;5085500;28;20054;-36
2022/11/13 00:39:21;;;;;;;16.73;11.73;;;;;;;6.70;88.38;94801.22;5082116;28;20029;-36
2022/11/13 00:41:46;;;;;;;17.70;11.32;;;;;;;6.77;88.15;94798.03;5078076;28;20119;-35
2022/11/13 00:44:12;;;;;;;16.85;11.55;;;;;;;6.85;88.01;94801.81;5081753;28;20767;-36
2022/11/13 00:46:37;;;;;;;19.98;11.20;;;;;;;6.85;87.74;94807.28;5058913;28;20419;-36
2022/11/13 00:49:04;;;;;;;15.63;10.48;;;;;;;6.93;88.02;94797.34;5085665;28;20031;-36
2022/11/13 00:51:30;;;;;;;15.57;11.05;;;;;;;6.93;88.23;94800.09;5078332;28;20028;-36
2022/11/13 00:53:56;;;;;;;21.55;13.95;;;;;;;7.02;88.10;94799.88;5077455;28;20461;-36
2022/11/13 00:56:22;;;;;;;22.42;15.65;;;;;;;7.03;87.30;94798.66;5090123;28;20031;-36
2022/11/13 00:58:47;;;;;;;20.33;14.23;;;;;;;7.06;87.27;94792.16;5082034;28;20047;-36
2022/11/13 01:01:16;;;;;;;17.45;12.00;;;;;;;7.07;87.17;94788.19;5081864;28;20047;-36
2022/11/13 01:03:42;;;;;;;;;;;;;;;7.10;87.14;94787.19;5081579;28;20021;-36
2022/11/13 01:06:16;;;;;;;22.10;12.23;;;;;;;7.06;86.95;94789.41;5077847;28;19920;-36
2022/11/13 01:08:41;;;;;;;22.50;14.73;;;;;;;7.04;87.39;94799.41;5067342;28;20040;-36
2022/11/13 01:11:09;;;;;;;37.13;18.73;;;;;;;7.08;87.53;94797.91;5079145;28;20051;-36
2022/11/13 01:13:34;;;;;;;36.25;19.48;;;;;;;7.06;86.94;94778.44;5081418;28;20089;-36
2022/11/13 01:16:04;;;;;;;36.13;22.15;;;;;;;7.17;86.19;94783.22;5086860;28;20028;-36
2022/11/13 01:18:30;;;;;;;41.85;23.13;;;;;;;7.24;85.82;94788.97;5083618;28;20028;-36
2022/11/13 01:21:19;;;;;;;41.85;22.88;;;;;;;7.14;86.16;94775.97;5082954;28;20466;-36
2022/11/13 01:23:45;;;;;;;28.38;17.80;;;;;;;7.18;85.95;94781.97;5076955;28;20027;-36
2022/11/13 01:26:18;;;;;;;25.80;16.77;;;;;;;7.06;86.24;94775.69;5075776;28;20780;-35
2022/11/13 01:28:43;;;;;;;23.45;14.13;;;;;;;7.00;86.82;94782.41;5080124;28;20036;-36
2022/11/13 01:31:19;;;;;;;22.73;13.32;;;;;;;7.07;86.91;94777.19;5080025;28;20557;-36
2022/11/13 01:33:45;;;;;;;24.83;14.40;;;;;;;7.14;86.81;94775.97;5080142;28;20097;-36
2022/11/13 01:36:16;;;;;;;18.27;14.15;;;;;;;7.22;86.31;94775.00;5078085;28;20027;-36
2022/11/13 01:38:41;;;;;;;16.92;12.38;;;;;;;7.21;86.09;94778.97;5087873;28;20020;-35
2022/11/13 01:41:08;;;;;;;21.48;13.15;;;;;;;7.13;86.37;94768.97;5085542;28;20458;-35
2022/11/13 01:43:36;;;;;;;20.05;12.65;;;;;;;7.18;86.65;94774.50;5060064;28;20408;-35
2022/11/13 01:46:06;;;;;;;20.90;14.75;;;;;;;7.16;86.86;94776.22;5080495;28;20033;-35
2022/11/13 01:48:36;;;;;;;22.13;14.65;;;;;;;7.20;87.14;94769.25;5089605;28;20020;-36
2022/11/13 01:51:08;;;;;;;23.45;14.63;;;;;;;7.15;86.83;94760.97;5081331;28;20032;-35
2022/11/13 01:53:34;;;;;;;19.27;13.20;;;;;;;7.06;86.95;94770.19;5079015;28;20031;-35
2022/11/13 01:56:00;;;;;;;20.23;13.63;;;;;;;7.23;86.30;94762.78;5081433;28;20032;-35
2022/11/13 01:58:25;;;;;;;23.75;16.00;;;;;;;7.21;86.17;94759.03;5080832;28;20400;-35
2022/11/13 02:00:51;;;;;;;21.45;13.80;;;;;;;7.26;85.49;94763.75;5085943;28;20081;-35
2022/11/13 02:03:16;;;;;;;19.95;14.05;;;;;;;7.23;85.42;94762.03;5082309;28;20034;-35
2022/11/13 02:05:42;;;;;;;20.25;14.13;;;;;;;7.26;85.69;94766.50;5084145;28;20039;-34
2022/11/13 02:08:07;;;;;;;19.67;13.40;;;;;;;7.27;85.55;94754.28;5068116;28;20024;-34
2022/11/13 02:10:32;;;;;;;17.52;13.05;;;;;;;7.33;85.21;94760.53;5086734;28;20063;-34
2022/11/13 02:12:58;;;;;;;16.52;12.13;;;;;;;7.26;84.93;94758.25;5091241;28;20023;-34
2022/11/13 02:15:24;;;;;;;19.75;13.07;;;;;;;7.27;84.99;94760.53;5079446;28;20024;-34
2022/11/13 02:17:56;;;;;;;18.27;12.88;;;;;;;7.25;85.10;94743.81;5082110;28;20115;-35
2022/11/13 02:20:48;;;;;;;17.58;12.73;;;;;;;7.30;84.99;94754.03;5063675;28;20020;-35
2022/11/13 02:23:27;;;;;;;13.68;10.07;;;;;;;7.19;85.73;94751.25;5086372;28;20027;-35
2022/11/13 02:25:53;;;;;;;14.55;10.20;;;;;;;7.22;85.84;94749.53;5070086;28;20024;-35
2022/11/13 02:28:19;;;;;;;12.70;9.63;;;;;;;7.21;86.05;94739.78;5090197;28;20028;-35
2022/11/13 02:30:44;;;;;;;11.93;8.88;;;;;;;7.28;85.70;94745.53;5089473;28;20035;-35
2022/11/13 02:33:29;;;;;;;11.27;7.88;;;;;;;7.29;86.11;94741.56;5082014;28;20534;-35
2022/11/13 02:35:55;;;;;;;12.52;8.23;;;;;;;7.21;86.40;94742.53;5081407;28;20024;-35
2022/11/13 02:38:20;;;;;;;11.63;9.15;;;;;;;7.23;86.80;94738.06;5087109;28;20070;-35
2022/11/13 02:40:46;;;;;;;11.48;7.70;;;;;;;7.19;87.34;94742.28;5084636;28;20081;-35
2022/11/13 02:43:11;;;;;;;15.93;8.23;;;;;;;7.23;87.59;94746.28;5084054;28;20028;-35
2022/11/13 02:45:39;;;;;;;20.52;10.98;;;;;;;7.30;87.74;94754.03;5090847;28;20523;-35
2022/11/13 02:48:05;;;;;;;19.67;12.53;;;;;;;7.29;87.36;94752.56;5084942;28;20028;-35
2022/11/13 02:50:31;;;;;;;19.65;12.20;;;;;;;7.27;87.34;94737.81;5086041;28;20538;-35
2022/11/13 02:52:57;;;;;;;19.73;12.52;;;;;;;7.30;87.15;94737.56;5084612;28;20020;-35
2022/11/13 02:55:23;;;;;;;17.40;13.10;;;;;;;7.38;86.73;94752.31;5095357;28;20577;-35
2022/11/13 02:57:48;;;;;;;19.80;13.68;;;;;;;7.45;86.25;94749.06;5081759;28;20051;-35
2022/11/13 03:00:14;;;;;;;18.95;12.88;;;;;;;7.36;86.44;94748.56;5087557;28;20103;-35
2022/11/13 03:02:40;;;;;;;18.52;12.18;;;;;;;7.32;86.16;94756.31;5087244;28;20024;-35
2022/11/13 03:05:06;;;;;;;30.05;18.48;;;;;;;7.21;86.69;94743.28;5081262;28;20094;-35
2022/11/13 03:07:31;;;;;;;33.92;20.40;;;;;;;7.29;86.61;94754.53;5088121;28;20028;-35
2022/11/13 03:09:57;;;;;;;34.15;22.17;;;;;;;7.41;86.26;94745.06;5089827;28;20024;-36
2022/11/13 03:12:22;;;;;;;21.42;15.70;;;;;;;7.38;86.29;94746.84;5086317;28;20469;-35
2022/11/13 03:14:48;;;;;;;16.48;12.15;;;;;;;7.35;86.04;94747.81;5085804;28;20543;-35
2022/11/13 03:17:13;;;;;;;18.45;11.95;;;;;;;7.31;86.21;94744.56;5091755;28;20035;-35
2022/11/13 03:19:38;;;;;;;14.77;10.23;;;;;;;7.35;86.21;94747.81;5079192;28;20396;-36
2022/11/13 03:22:04;;;;;;;13.88;10.43;;;;;;;7.32;86.34;94748.06;5083510;28;20101;-35
2022/11/13 03:24:29;;;;;;;14.65;10.82;;;;;;;7.25;87.23;94751.28;5080987;28;20091;-35
2022/11/13 03:26:55;;;;;;;15.48;11.20;;;;;;;7.30;87.06;94745.03;5080189;28;20396;-35
2022/11/13 03:29:20;;;;;;;17.90;11.02;;;;;;;7.19;86.89;94734.78;5079594;28;20417;-35
2022/11/13 03:31:46;;;;;;;19.38;11.52;;;;;;;7.30;87.24;94753.28;5084248;28;20640;-35
2022/11/13 03:34:11;;;;;;;16.13;11.20;;;;;;;7.31;87.23;94760.28;5081140;28;20442;-35
2022/11/13 03:36:37;;;;;;;15.23;10.02;;;;;;;7.44;86.60;94760.56;5080523;28;20481;-35
2022/11/13 03:39:02;;;;;;;14.35;10.43;;;;;;;7.42;86.70;94758.31;5079207;28;20233;-35
2022/11/13 03:41:28;;;;;;;14.18;9.57;;;;;;;7.46;85.78;94752.56;5083657;28;20111;-35
2022/11/13 03:43:53;;;;;;;11.73;8.07;;;;;;;7.44;86.09;94755.06;5091111;28;20079;-35
2022/11/13 03:46:19;;;;;;;12.80;8.25;;;;;;;7.39;86.06;94753.81;5076681;28;20424;-35
2022/11/13 03:48:44;;;;;;;14.07;8.20;;;;;;;7.42;85.99;94755.56;5081235;28;20432;-35
2022/11/13 03:51:10;;;;;;;9.77;7.43;;;;;;;7.49;85.56;94749.56;5080641;28;20020;-35
2022/11/13 03:53:35;;;;;;;13.52;8.20;;;;;;;7.39;85.76;94742.06;5080548;28;20038;-36
2022/11/13 03:56:00;;;;;;;11.30;8.15;;;;;;;7.40;86.15;94755.31;5077158;28;20041;-35
2022/11/13 03:58:26;;;;;;;9.48;7.45;;;;;;;7.49;86.17;94755.06;5078056;28;20016;-35
2022/11/13 04:00:53;;;;;;;12.52;7.75;;;;;;;7.44;85.88;94741.34;5086945;28;20067;-35
2022/11/13 04:03:19;;;;;;;9.90;6.97;;;;;;;7.34;86.12;94751.06;5082647;28;20020;-35
2022/11/13 04:05:47;;;;;;;13.93;8.80;;;;;;;7.34;86.01;94743.56;5082309;28;20038;-35
2022/11/13 04:08:13;;;;;;;15.02;9.27;;;;;;;7.28;85.85;94745.53;5089456;28;20418;-35
2022/11/13 04:10:38;;;;;;;10.68;7.75;;;;;;;7.27;85.79;94749.56;5088685;28;20020;-35
2022/11/13 04:13:04;;;;;;;13.50;7.90;;;;;;;7.21;85.83;94739.78;5079336;28;20498;-35
2022/11/13 04:15:29;;;;;;;13.30;8.15;;;;;;;7.14;86.32;94743.00;5083854;28;20081;-36
2022/11/13 04:17:55;;;;;;;10.88;7.25;;;;;;;7.12;85.82;94740.00;5090735;28;20480;-35
2022/11/13 04:20:20;;;;;;;12.80;7.55;;;;;;;7.11;85.58;94749.47;5083160;28;20108;-35
2022/11/13 04:22:46;;;;;;;10.60;8.05;;;;;;;7.00;85.62;94750.19;5080758;28;20538;-36
2022/11/13 04:25:11;;;;;;;13.07;8.25;;;;;;;6.91;85.34;94747.66;5083080;28;20016;-35
2022/11/13 04:27:36;;;;;;;10.52;7.45;;;;;;;6.81;85.84;94752.63;5061510;28;20055;-35
2022/11/13 04:30:03;;;;;;;13.05;8.00;;;;;;;6.76;85.96;94749.84;5062159;28;20060;-36
2022/11/13 04:32:29;;;;;;;13.38;7.72;;;;;;;6.60;86.04;94745.81;5086348;28;20019;-36
2022/11/13 04:34:54;;;;;;;12.35;7.72;;;;;;;6.58;86.08;94737.28;5084329;28;20404;-35
2022/11/13 04:37:20;;;;;;;9.88;6.70;;;;;;;6.52;87.52;94741.28;5084050;28;20408;-35
2022/11/13 04:39:45;;;;;;;11.60;7.10;;;;;;;6.45;87.25;94745.22;5083358;28;20407;-35
2022/11/13 04:44:55;;;;;;;9.18;6.90;;;;;;;6.39;86.85;94738.22;5083618;28;20051;-35
2022/11/13 04:47:20;;;;;;;11.93;6.35;;;;;;;6.42;87.08;94742.69;5080200;28;20024;-35
2022/11/13 04:49:45;;;;;;;14.70;7.43;;;;;;;6.25;87.90;94742.63;5084114;28;20101;-34
2022/11/13 04:52:11;;;;;;;13.65;6.43;;;;;;;6.22;88.02;94737.34;5082993;28;20024;-35
2022/11/13 04:54:37;;;;;;;10.52;6.50;;;;;;;6.18;87.79;94734.84;5082799;28;20046;-35
2022/11/13 04:57:02;;;;;;;12.23;6.95;;;;;;;6.17;88.64;94732.59;5081436;28;20016;-35
2022/11/13 04:59:28;;;;;;;9.60;6.75;;;;;;;6.23;89.11;94742.34;5075364;28;20031;-34
2022/11/13 05:01:54;;;;;;;9.95;5.68;;;;;;;6.17;89.15;94738.06;5080772;28;20028;-35
2022/11/13 05:04:20;;;;;;;11.35;6.70;;;;;;;6.22;89.97;94735.34;5082614;28;20016;-35
2022/11/13 05:06:45;;;;;;;11.68;7.97;;;;;;;6.27;91.05;94736.63;5082619;28;20024;-35
2022/11/13 05:09:11;;;;;;;10.30;7.30;;;;;;;6.25;91.06;94733.63;5085384;28;21595;-35
2022/11/13 05:11:36;;;;;;;9.13;5.85;;;;;;;6.24;90.33;94735.59;5081460;28;20028;-35
2022/11/13 05:14:03;;;;;;;10.52;7.15;;;;;;;6.25;89.99;94748.09;5085423;28;20551;-35
2022/11/13 05:16:29;;;;;;;9.82;6.80;;;;;;;6.35;90.36;94741.16;5087706;28;20518;-35
2022/11/13 05:18:57;;;;;;;10.60;7.15;;;;;;;6.18;91.29;94712.91;5075454;28;20059;-35
2022/11/13 05:21:22;;;;;;;10.52;6.45;;;;;;;6.45;91.30;94739.75;5078779;28;20021;-35
2022/11/13 05:23:47;;;;;;;9.95;6.35;;;;;;;6.50;90.65;94746.47;5089687;28;20032;-35
2022/11/13 05:26:13;;;;;;;9.18;6.53;;;;;;;6.65;90.75;94744.31;5081476;28;20043;-35
2022/11/13 05:28:39;;;;;;;8.70;6.05;;;;;;;6.64;90.29;94745.56;5080288;28;20108;-35
2022/11/13 05:31:08;;;;;;;10.75;6.68;;;;;;;6.70;89.97;94749.09;5078845;28;20062;-35
2022/11/13 05:33:35;;;;;;;9.18;6.65;;;;;;;6.60;90.09;94756.03;5081403;28;20028;-35
2022/11/13 05:36:11;;;;;;;12.05;7.03;;;;;;;6.53;90.04;94749.00;5082967;28;20039;-35
2022/11/13 05:38:37;;;;;;;8.77;6.10;;;;;;;6.54;90.55;94755.25;5085040;28;20407;-35
2022/11/13 05:41:09;;;;;;;10.73;6.97;;;;;;;6.64;90.25;94765.53;5077434;28;20283;-35
2022/11/13 05:43:35;;;;;;;9.30;7.22;;;;;;;6.64;89.97;94760.03;5087874;28;20054;-34
2022/11/13 05:46:11;;;;;;;9.77;7.03;;;;;;;6.68;89.55;94765.28;5079276;28;20035;-35
2022/11/13 05:48:37;;;;;;;7.55;5.15;;;;;;;6.66;89.02;94760.31;5088156;28;20024;-35
2022/11/13 05:51:04;;;;;;;9.63;6.70;;;;;;;6.63;88.96;94753.03;5088129;28;20447;-35
2022/11/13 05:53:32;;;;;;;8.32;6.40;;;;;;;6.76;88.60;94771.81;5090298;28;20568;-35
2022/11/13 05:56:12;;;;;;;9.63;6.00;;;;;;;6.88;88.45;94771.38;5088371;28;20028;-35
2022/11/13 05:58:39;;;;;;;8.90;6.43;;;;;;;6.84;87.48;94765.34;5084670;28;20031;-35
2022/11/13 06:01:16;;;;;;;11.38;7.60;;;;;;;6.86;87.15;94764.88;5085075;28;20020;-35
2022/11/13 06:03:43;;;;;;;9.10;5.88;;;;;;;7.01;86.80;94773.69;5092923;28;20411;-35
2022/11/13 06:06:11;;;;;;;13.82;8.13;;;;;;;6.93;86.62;94772.63;5083891;28;20016;-35
2022/11/13 06:08:37;;;;;;;16.40;11.02;;;;;;;6.98;86.39;94771.16;5091748;28;20032;-35
2022/11/13 06:11:06;;;;;;;13.65;9.57;;;;;;;7.03;84.93;94776.69;5082332;28;20035;-35
2022/11/13 06:13:31;;;;;;;10.75;6.95;;;;;;;7.09;85.47;94771.97;5092100;28;20399;-35
2022/11/13 06:16:12;;;;;;;11.38;7.50;;;;;;;7.09;86.02;94766.47;5083864;28;20030;-35
2022/11/13 06:18:38;;;;;;;11.18;7.38;;;;;;;7.10;85.56;94772.72;5086284;28;20504;-35
2022/11/13 06:21:09;;;;;;;11.32;8.55;;;;;;;7.19;84.82;94778.00;5087772;28;20496;-35
2022/11/13 06:23:37;;;;;;;12.60;8.63;;;;;;;7.16;84.47;94776.22;5085415;28;20030;-35
2022/11/13 06:26:10;;;;;;;17.52;11.20;;;;;;;7.17;84.22;94766.75;5087222;28;20381;-35
2022/11/13 06:28:36;;;;;;;15.27;11.48;;;;;;;7.19;83.91;94773.22;5083363;28;20034;-35
2022/11/13 06:31:13;;;;;;;13.90;10.02;;;;;;;7.27;83.93;94765.28;5089628;28;20457;-35
2022/11/13 06:33:39;;;;;;;23.67;13.60;;;;;;;7.33;83.39;94763.28;5085799;28;20020;-35
2022/11/13 06:36:08;;;;;;;28.80;15.90;;;;;;;7.44;83.10;94772.31;5082505;28;20029;-35
2022/11/13 06:38:35;;;;;;;68.32;30.38;;;;;;;7.59;83.52;94769.34;5087553;28;20035;-34
2022/11/13 06:41:01;;;;;;;36.03;19.08;;;;;;;7.89;83.29;94775.13;5085006;28;20551;-35
2022/11/13 06:43:27;;;;;;;40.03;20.05;;;;;;;8.13;81.74;94769.88;5083554;28;20046;-35
2022/11/13 06:45:54;;;;;;;38.83;21.85;;;;;;;8.33;81.31;94773.16;5084902;28;20194;-34
2022/11/13 06:48:19;;;;;;;58.08;28.80;;;;;;;8.47;79.76;94776.84;5086829;28;20017;-35
2022/11/13 06:50:45;;;;;;;59.63;27.10;;;;;;;8.62;79.65;94780.09;5102227;28;20040;-35
2022/11/13 06:53:10;;;;;;;52.22;26.88;;;;;;;8.73;79.24;94771.81;5079033;28;20020;-35
2022/11/13 06:55:44;;;;;;;43.38;21.88;;;;;;;8.87;79.17;94767.25;5089754;28;20028;-35
2022/11/13 06:58:09;;;;;;;71.78;31.70;;;;;;;8.98;78.86;94762.47;5092131;28;20023;-35
2022/11/13 07:00:35;;;;;;;49.55;25.15;;;;;;;9.15;78.44;94770.66;5090967;28;20028;-35
2022/11/13 07:03:00;;;;;;;29.90;15.88;;;;;;;9.30;78.65;94760.06;5087637;28;20024;-35
2022/11/13 07:05:26;;;;;;;19.30;11.52;;;;;;;9.49;78.19;94760.97;5084421;28;20054;-36
2022/11/13 07:07:51;;;;;;;22.60;13.57;;;;;;;9.69;77.41;94759.84;5084511;28;20028;-35
2022/11/13 07:10:17;;;;;;;17.60;12.20;;;;;;;9.87;75.96;94762.00;5079914;28;20012;-35
2022/11/13 07:12:42;;;;;;;16.02;8.30;;;;;;;9.97;72.85;94757.66;5080423;28;20124;-35
2022/11/13 07:15:08;;;;;;;17.73;9.65;;;;;;;10.11;73.94;94764.09;5074261;28;20023;-35
2022/11/13 07:17:33;;;;;;;17.08;8.73;;;;;;;10.21;72.62;94768.03;5083993;28;20024;-35
2022/11/13 07:19:59;;;;;;;17.27;11.55;;;;;;;10.39;71.85;94757.09;5081792;28;20028;-35
2022/11/13 07:22:24;;;;;;;52.63;24.35;;;;;;;10.55;72.36;94752.66;5081255;28;20025;-35
2022/11/13 07:24:50;;;;;;;12.82;7.97;;;;;;;10.45;69.26;94754.25;5083715;28;20480;-35
2022/11/13 07:27:15;;;;;;;11.68;8.00;;;;;;;10.55;70.87;94758.91;5088988;28;20046;-35
2022/11/13 07:29:41;;;;;;;9.88;7.70;;;;;;;10.50;69.98;94761.75;5079821;28;20013;-34
2022/11/13 07:32:06;;;;;;;8.35;6.90;;;;;;;10.56;69.89;94763.19;5077327;28;20024;-34
2022/11/13 07:34:32;;;;;;;7.95;6.55;;;;;;;10.86;69.50;94765.88;5086106;28;20404;-35
2022/11/13 07:36:57;;;;;;;9.85;5.53;;;;;;;10.76;66.55;94761.22;5080281;28;20040;-47
2022/11/13 07:39:23;;;;;;;9.48;6.00;;;;;;;10.65;68.57;94764.88;5087285;28;20028;-46
2022/11/13 07:41:48;;;;;;;19.23;9.48;;;;;;;10.57;70.95;94758.41;5085634;28;21214;-35
2022/11/13 07:44:14;;;;;;;17.67;9.10;;;;;;;10.61;71.26;94753.34;5085719;28;20113;-35
2022/11/13 07:46:39;;;;;;;12.68;7.90;;;;;;;11.46;70.45;94758.13;5079551;28;21246;-35
2022/11/13 07:49:04;;;;;;;7.75;5.55;;;;;;;12.73;62.69;94763.72;5076736;28;20028;-35
2022/11/13 07:51:30;;;;;;;7.40;5.88;;;;;;;13.07;61.52;94761.09;5082728;28;20040;-35
2022/11/13 07:53:55;;;;;;;7.82;6.10;;;;;;;13.81;59.83;94773.69;5082028;28;20094;-36
2022/11/13 07:56:22;;;;;;;9.85;7.15;;;;;;;14.36;57.21;94764.09;5081746;28;20024;-35
2022/11/13 07:58:47;;;;;;;7.63;5.68;;;;;;;14.63;57.22;94773.03;5092077;28;20020;-35
2022/11/13 08:01:13;;;;;;;7.13;5.25;;;;;;;14.79;55.12;94764.28;5077052;28;20115;-36
2022/11/13 08:03:39;;;;;;;10.52;6.45;;;;;;;16.06;52.65;94768.31;5080724;28;20020;-36
2022/11/13 08:06:06;;;;;;;7.07;5.53;;;;;;;16.55;49.44;94768.78;5087382;28;20028;-36
2022/11/13 08:08:32;;;;;;;6.72;5.65;;;;;;;16.89;49.90;94768.41;5075303;28;20025;-36
2022/11/13 08:10:58;;;;;;;10.40;6.60;;;;;;;16.48;50.14;94768.75;5079730;28;20035;-36
2022/11/13 08:13:23;;;;;;;8.93;6.28;;;;;;;16.34;50.63;94765.38;5077367;28;20013;-36
2022/11/13 08:15:49;;;;;;;26.23;13.10;;;;;;;17.09;48.70;94761.88;5084169;28;20113;-36
2022/11/13 08:18:15;;;;;;;8.45;6.88;;;;;;;16.68;47.88;94763.03;5080527;28;20036;-36
2022/11/13 08:20:40;;;;;;;5.63;4.70;;;;;;;16.78;47.72;94762.47;5079641;28;20096;-36
2022/11/13 08:23:06;;;;;;;5.35;4.68;;;;;;;16.95;46.51;94768.22;5078331;28;20043;-36
2022/11/13 08:25:32;;;;;;;5.72;4.72;;;;;;;17.16;47.24;94769.50;5083784;28;20024;-36
2022/11/13 08:27:58;;;;;;;7.13;5.18;;;;;;;17.62;45.86;94767.38;5084424;28;20027;-36
2022/11/13 08:30:26;;;;;;;6.18;4.78;;;;;;;18.62;43.54;94760.75;5080061;28;20743;-36
2022/11/13 08:32:51;;;;;;;7.82;5.13;;;;;;;19.01;42.17;94762.66;5078337;28;20541;-35
2022/11/13 08:35:18;;;;;;;5.63;4.95;;;;;;;18.78;42.07;94759.28;5076003;28;20032;-36
2022/11/13 08:37:43;;;;;;;9.15;5.80;;;;;;;19.87;40.95;94760.66;5077689;28;20036;-36
2022/11/13 08:40:09;;;;;;;5.25;4.75;;;;;;;20.30;38.79;94750.78;5076014;28;20020;-36
2022/11/13 08:42:35;;;;;;;5.32;4.82;;;;;;;20.32;38.85;94753.75;5080866;28;20511;-36
2022/11/13 08:45:00;;;;;;;5.03;4.53;;;;;;;21.30;39.03;94757.84;5080200;28;20078;-36
2022/11/13 08:47:27;;;;;;;8.88;4.00;;;;;;;21.54;36.53;94754.03;5082718;28;20054;-36
2022/11/13 08:49:54;;;;;;;4.70;4.30;;;;;;;22.28;34.96;94760.84;5081596;28;20141;-36
2022/11/13 08:52:20;;;;;;;5.97;4.35;;;;;;;22.49;35.71;94758.13;5085164;28;20110;-36
2022/11/13 08:54:45;;;;;;;6.40;5.05;;;;;;;22.86;33.68;94761.44;5082537;28;20119;-36
2022/11/13 08:57:11;;;;;;;5.75;4.18;;;;;;;23.31;33.38;94751.84;5085814;28;20032;-36
2022/11/13 08:59:37;;;;;;;4.75;4.35;;;;;;;23.33;33.42;94761.22;5093489;28;20024;-37
2022/11/13 09:02:02;;;;;;;6.55;4.90;;;;;;;23.56;32.91;94755.00;5079914;28;20484;-36
2022/11/13 09:04:28;;;;;;;4.63;4.18;;;;;;;23.52;31.62;94763.16;5082331;28;20106;-36
2022/11/13 09:06:53;;;;;;;5.85;4.88;;;;;;;22.58;32.77;94752.47;5076300;28;20484;-36
2022/11/13 09:09:20;;;;;;;4.32;3.65;;;;;;;22.52;32.89;94754.84;5079482;28;20036;-36
2022/11/13 09:11:46;;;;;;;7.10;4.95;;;;;;;22.32;32.97;94759.06;5085752;28;20168;-35
2022/11/13 09:14:11;;;;;;;5.82;4.70;;;;;;;21.83;34.02;94737.19;5082139;28;20131;-36
2022/11/13 09:16:37;;;;;;;8.40;5.20;;;;;;;22.34;33.97;94750.75;5076563;28;20093;-36
2022/11/13 09:19:02;;;;;;;5.53;4.07;;;;;;;21.88;34.64;94745.34;5072925;28;20405;-36
2022/11/13 09:21:28;;;;;;;7.40;5.05;;;;;;;21.66;35.26;94742.94;5081460;28;20028;-36
2022/11/13 09:23:54;;;;;;;5.22;4.13;;;;;;;22.16;33.83;94743.06;5075354;28;20051;-36
2022/11/13 09:26:19;;;;;;;5.38;4.47;;;;;;;21.10;34.80;94748.63;5079571;28;20089;-36
2022/11/13 09:28:45;;;;;;;5.43;4.72;;;;;;;20.81;35.53;94744.97;5079783;28;20043;-36
2022/11/13 09:31:10;;;;;;;5.50;4.90;;;;;;;21.45;35.42;94742.78;5079474;28;20031;-36
2022/11/13 09:33:36;;;;;;;5.45;4.95;;;;;;;21.42;35.97;94741.88;5079993;28;20743;-36
2022/11/13 09:36:02;;;;;;;6.68;5.18;;;;;;;21.98;34.90;94731.28;5080234;28;20574;-36
2022/11/13 09:38:30;;;;;;;6.75;4.35;;;;;;;22.44;33.25;94739.44;5085646;28;20051;-36
2022/11/13 09:41:11;;;;;;;5.18;4.18;;;;;;;22.39;33.93;94720.81;5073310;28;20428;-36
2022/11/13 09:43:54;;;;;;;10.90;5.05;;;;;;;22.32;34.11;94724.53;5076784;28;20052;-36
2022/11/13 09:46:46;;;;;;;5.28;4.57;;;;;;;21.90;32.75;94736.28;5082665;28;20082;-36
2022/11/13 09:49:15;;;;;;;5.13;4.40;;;;;;;20.39;36.05;94730.47;5072316;28;20032;-36
2022/11/13 09:51:44;;;;;;;6.45;5.85;;;;;;;20.66;37.79;94722.75;5078806;28;20508;-36
2022/11/13 09:54:13;;;;;;;5.03;4.53;;;;;;;21.47;35.86;94715.56;5057074;28;20144;-36
2022/11/13 09:57:03;;;;;;;7.15;5.20;;;;;;;21.88;34.89;94710.84;5060225;28;20085;-36
2022/11/13 09:59:44;;;;;;;10.13;6.82;;;;;;;22.36;34.32;94717.13;5079525;28;20064;-36
2022/11/13 10:02:34;;;;;;;4.90;4.30;;;;;;;22.45;34.46;94715.63;5082526;28;20071;-36
2022/11/13 10:04:59;;;;;;;8.52;6.45;;;;;;;22.52;34.50;94714.72;5080295;28;20035;-36
2022/11/13 10:07:54;;;;;;;8.55;5.75;;;;;;;23.11;32.00;94713.84;5089157;28;20494;-37
2022/11/13 10:10:44;;;;;;;7.45;6.28;;;;;;;22.68;33.61;94704.59;5081786;28;20059;-36
2022/11/13 10:13:13;;;;;;;8.82;6.55;;;;;;;23.29;32.23;94698.19;5074369;28;20190;-36
2022/11/13 10:15:41;;;;;;;5.32;4.50;;;;;;;22.57;32.75;94722.09;5074596;28;20059;-36
2022/11/13 10:18:24;;;;;;;4.85;4.35;;;;;;;21.91;33.87;94708.94;5066515;28;20046;-36
2022/11/13 10:20:56;;;;;;;5.80;4.63;;;;;;;21.66;34.03;94706.38;5059725;28;20037;-36
2022/11/13 10:23:26;;;;;;;4.65;4.25;;;;;;;20.16;36.25;94704.78;5081863;28;20049;-36
2022/11/13 10:25:55;;;;;;;13.23;5.63;;;;;;;20.32;36.80;94706.81;5077267;28;20780;-35
2022/11/13 10:28:22;;;;;;;;;;;;;;;19.66;37.83;94713.44;5067272;28;20522;-36
2022/11/13 10:30:48;;;;;;;6.13;5.32;;;;;;;19.29;38.74;94714.63;5077390;28;19908;-36
2022/11/13 10:33:19;;;;;;;8.10;5.30;;;;;;;18.95;39.69;94713.84;5073769;28;20036;-36
2022/11/13 10:35:58;;;;;;;7.32;5.93;;;;;;;18.45;40.81;94707.53;5088326;28;20042;-35
2022/11/13 10:38:46;;;;;;;6.13;5.63;;;;;;;17.99;41.76;94713.41;5061404;28;20032;-35
2022/11/13 10:41:15;;;;;;;9.07;5.72;;;;;;;17.28;43.09;94694.50;5086496;28;20035;-35
2022/11/13 10:44:16;;;;;;;7.28;5.90;;;;;;;17.00;44.36;94709.44;5085514;28;20133;-35
2022/11/13 10:46:42;;;;;;;8.60;5.80;;;;;;;16.65;45.16;94702.06;5067644;28;20037;-35
2022/11/13 10:49:18;;;;;;;8.05;6.00;;;;;;;16.43;46.45;94700.72;5087762;28;20031;-35
2022/11/13 10:51:44;;;;;;;6.65;5.55;;;;;;;16.18;46.35;94696.22;5087846;28;20104;-36
2022/11/13 10:54:25;;;;;;;7.53;6.60;;;;;;;15.72;47.42;94682.22;5070729;28;20119;-36
2022/11/13 10:57:02;;;;;;;10.90;7.53;;;;;;;15.94;47.50;94698.25;5075119;28;20117;-36
2022/11/13 10:59:42;;;;;;;8.90;6.80;;;;;;;15.99;47.73;94698.63;5084466;28;20415;-36
2022/11/13 11:02:10;;;;;;;6.78;6.03;;;;;;;15.32;48.50;94688.75;5082947;28;20040;-36
2022/11/13 11:04:36;;;;;;;7.35;6.63;;;;;;;15.24;49.10;94690.75;5081787;28;20036;-35
2022/11/13 11:07:21;;;;;;;9.15;7.25;;;;;;;15.31;50.40;94690.06;5077452;28;20114;-35
2022/11/13 11:09:48;;;;;;;8.20;6.13;;;;;;;15.10;49.69;94682.53;5078284;28;20036;-36
2022/11/13 11:12:19;;;;;;;7.20;6.50;;;;;;;14.81;50.17;94689.41;5078845;28;20037;-35
2022/11/13 11:14:59;;;;;;;6.25;5.57;;;;;;;14.82;50.22;94685.34;5074158;28;20044;-35
2022/11/13 11:17:31;;;;;;;8.77;6.70;;;;;;;14.74;50.76;94690.13;5084992;28;20029;-35
2022/11/13 11:20:04;;;;;;;8.25;7.32;;;;;;;14.79;51.11;94691.25;5077676;28;20077;-35
2022/11/13 11:22:32;;;;;;;13.63;9.38;;;;;;;14.72;51.81;94678.81;5062386;28;20067;-35
2022/11/13 11:25:15;;;;;;;9.07;5.77;;;;;;;14.55;50.83;94680.53;5077262;28;20106;-35
2022/11/13 11:28:12;;;;;;;8.98;7.35;;;;;;;14.52;51.41;94678.84;5073482;28;20043;-35
2022/11/13 11:30:52;;;;;;;11.93;7.50;;;;;;;14.48;52.19;94676.41;5055760;28;20505;-35
2022/11/13 11:33:24;;;;;;;7.75;6.90;;;;;;;14.67;50.85;94678.94;5073294;28;20817;-35
2022/11/13 11:36:21;;;;;;;8.40;6.18;;;;;;;14.73;50.84;94677.50;5075179;28;20033;-35
2022/11/13 11:38:58;;;;;;;8.40;7.50;;;;;;;14.51;50.82;94680.84;5077673;28;20040;-35